Stormwatcher's Retreat Logo




                  Temp     Hi    Low   Out    Dew  Wind  Wind   Wind    Hi    Hi   Wind   Heat    THW   THSW                Rain  Solar   Solar Hi Solar   UV    UV    Hi     Heat    Cool    In     In    In     In     In   In Air          Wind  Wind    ISS   Arc.
  Date    Time     Out   Temp   Temp   Hum    Pt. Speed   Dir    Run Speed   Dir  Chill  Index  Index  Index   Bar    Rain  Rate   Rad.  Energy    Rad.  Index  Dose   UV     D-D     D-D    Temp   Hum    Dew   Heat    EMC Density     ET   Samp   Tx   Recept  Int.
------------------------------------------------------------------------------------------------------------------------------------------------------------------------------------------------------------------------------------------------------------------------
 9/16/21 12:10a   52.0   52.1   51.2    81   46.3   6.0     E   1.00  12.0     E   50.0   51.8   49.8   47.0  30.132  0.00  0.00     0     0.00      0     0.0  0.00   0.0   0.090   0.000   71.0    55   54.0   70.0  10.13  .0743    0.000   202    7    100.0   10 
 9/16/21 12:20a   52.6   52.6   52.1    80   46.6   6.0   ENE   1.00  11.0   ENE   50.7   52.3   50.4   47.6  30.131  0.00  0.00     0     0.00      0     0.0  0.00   0.0   0.086   0.000   71.0    55   54.0   70.0  10.13  .0743    0.000   204    7    100.0   10 
 9/16/21 12:30a   52.7   52.7   52.6    78   46.0   6.0   ENE   1.00  12.0   ENE   50.8   52.3   50.4   47.6  30.132  0.00  0.00     0     0.00      0     0.0  0.00   0.0   0.085   0.000   70.9    55   53.9   69.9  10.13  .0743    0.000   204    7    100.0   10 
 9/16/21 12:40a   52.8   52.8   52.7    78   46.1   5.0   ENE   0.83  14.0   ENE   51.5   52.4   51.1   48.3  30.133  0.00  0.00     0     0.00      0     0.0  0.00   0.0   0.085   0.000   70.9    55   53.9   69.9  10.13  .0743    0.000   200    7    100.0   10 
 9/16/21 12:50a   52.7   52.8   52.6    78   46.0   5.0     E   0.83   9.0   ESE   51.4   52.3   51.0   48.2  30.133  0.00  0.00     0     0.00      0     0.0  0.00   0.0   0.085   0.000   70.9    55   53.9   69.9  10.13  .0743    0.000   201    7    100.0   10 
 9/16/21  1:00a   52.7   52.7   52.6    77   45.7   6.0   ENE   1.00  12.0   ENE   50.8   52.3   50.4   47.5  30.134  0.00  0.00     0     0.00      0     0.0  0.00   0.0   0.085   0.000   70.9    55   53.9   69.9  10.13  .0743    0.001   204    7    100.0   10 
 9/16/21  1:10a   52.9   52.9   52.7    77   45.9   6.0   ENE   1.00  16.0   ENE   51.1   52.5   50.7   47.8  30.134  0.00  0.00     0     0.00      0     0.0  0.00   0.0   0.084   0.000   70.8    55   53.8   69.7  10.13  .0743    0.000   201    7    100.0   10 
 9/16/21  1:20a   53.0   53.0   52.9    77   46.0   6.0     E   1.00  15.0     E   51.2   52.6   50.8   47.9  30.133  0.00  0.00     0     0.00      0     0.0  0.00   0.0   0.083   0.000   70.8    55   53.8   69.7  10.13  .0743    0.000   203    7    100.0   10 
 9/16/21  1:30a   52.8   52.9   52.7    77   45.8   6.0     E   1.00  12.0   ESE   51.0   52.4   50.6   47.7  30.133  0.00  0.00     0     0.00      0     0.0  0.00   0.0   0.085   0.000   70.7    55   53.7   69.6  10.14  .0743    0.000   201    7    100.0   10 
 9/16/21  1:40a   53.0   53.0   52.7    77   46.0   7.0     E   1.17  15.0   ENE   50.8   52.6   50.4   47.5  30.132  0.00  0.00     0     0.00      0     0.0  0.00   0.0   0.083   0.000   70.7    54   53.2   69.5   9.94  .0743    0.000   203    7    100.0   10 
 9/16/21  1:50a   53.0   53.1   53.0    76   45.6   5.0     E   0.83  15.0     E   51.7   52.5   51.2   48.3  30.133  0.00  0.00     0     0.00      0     0.0  0.00   0.0   0.083   0.000   70.6    54   53.1   69.4   9.94  .0744    0.000   200    7    100.0   10 
 9/16/21  2:00a   52.8   53.0   52.8    76   45.4   4.0   ENE   0.67  10.0     E   52.1   52.4   51.7   48.8  30.132  0.00  0.00     0     0.00      0     0.0  0.00   0.0   0.085   0.000   70.6    54   53.1   69.4   9.94  .0744    0.001   203    7    100.0   10 
 9/16/21  2:10a   52.5   52.8   52.5    76   45.2   4.0     E   0.67  13.0   ENE   51.8   52.1   51.4   48.5  30.132  0.00  0.00     0     0.00      0     0.0  0.00   0.0   0.087   0.000   70.5    54   53.1   69.3   9.94  .0744    0.000   203    7    100.0   10 
 9/16/21  2:20a   52.2   52.5   52.1    76   44.9   3.0     E   0.50   6.0     E   52.1   51.8   51.7   48.8  30.132  0.00  0.00     0     0.00      0     0.0  0.00   0.0   0.089   0.000   70.5    54   53.1   69.3   9.94  .0744    0.000   203    7    100.0   10 
 9/16/21  2:30a   52.0   52.2   52.0    77   45.0   3.0   ENE   0.50   9.0   ENE   51.9   51.7   51.6   48.7  30.131  0.00  0.00     0     0.00      0     0.0  0.00   0.0   0.090   0.000   70.5    54   53.1   69.3   9.94  .0744    0.000   202    7    100.0   10 
 9/16/21  2:40a   51.7   52.1   51.7    77   44.7   1.0   ENE   0.17   4.0   ENE   51.7   51.4   51.4   48.5  30.135  0.00  0.00     0     0.00      0     0.0  0.00   0.0   0.092   0.000   70.4    54   53.0   69.1   9.94  .0744    0.000   202    7    100.0   10 
 9/16/21  2:50a   51.0   51.7   51.0    77   44.0   1.0   ENE   0.17   3.0   ENE   51.0   50.8   50.8   47.9  30.132  0.00  0.00     0     0.00      0     0.0  0.00   0.0   0.097   0.000   70.4    54   53.0   69.1   9.94  .0744    0.000   204    7    100.0   10 
 9/16/21  3:00a   50.2   51.0   50.2    78   43.6   1.0     E   0.17   4.0   ENE   50.2   50.1   50.1   47.1  30.134  0.00  0.00     0     0.00      0     0.0  0.00   0.0   0.103   0.000   70.3    54   52.9   69.0   9.94  .0744    0.001   202    7    100.0   10 
 9/16/21  3:10a   49.7   50.2   49.7    80   43.8   2.0   ENE   0.33   4.0   NNE   49.7   49.7   49.7   46.7  30.134  0.00  0.00     0     0.00      0     0.0  0.00   0.0   0.106   0.000   70.3    54   52.9   69.0   9.94  .0744    0.000   203    7    100.0   10 
 9/16/21  3:20a   49.0   49.8   49.0    81   43.4   2.0    NE   0.33   3.0    NE   49.0   48.9   48.9   45.9  30.134  0.00  0.00     0     0.00      0     0.0  0.00   0.0   0.111   0.000   70.2    54   52.8   68.9   9.95  .0744    0.000   202    7    100.0   10 
 9/16/21  3:30a   48.2   49.0   48.2    81   42.6   2.0    NE   0.33   4.0    NE   48.2   48.1   48.1   45.1  30.136  0.00  0.00     0     0.00      0     0.0  0.00   0.0   0.117   0.000   70.2    54   52.8   68.9   9.95  .0744    0.000   205    7    100.0   10 
 9/16/21  3:40a   47.6   48.2   47.6    82   42.4   1.0    NE   0.17   3.0    NE   47.6   47.5   47.5   44.5  30.130  0.00  0.00     0     0.00      0     0.0  0.00   0.0   0.121   0.000   70.1    54   52.7   68.7   9.95  .0744    0.000   202    7    100.0   10 
 9/16/21  3:50a   47.3   47.6   47.3    82   42.1   0.0   ---   0.00   0.0   ---   47.3   47.2   47.2   44.2  30.130  0.00  0.00     0     0.00      0     0.0  0.00   0.0   0.123   0.000   70.1    54   52.7   68.7   9.95  .0744    0.000   203    7    100.0   10 
 9/16/21  4:00a   46.9   47.3   46.9    82   41.7   0.0   ---   0.00   0.0   ---   46.9   46.8   46.8   43.8  30.131  0.00  0.00     0     0.00      0     0.0  0.00   0.0   0.126   0.000   70.1    54   52.7   68.7   9.95  .0744    0.001   203    7    100.0   10 
 9/16/21  4:10a   46.5   46.9   46.5    82   41.3   0.0   ---   0.00   0.0   ---   46.5   46.4   46.4   43.4  30.130  0.00  0.00     0     0.00      0     0.0  0.00   0.0   0.128   0.000   70.0    54   52.6   68.6   9.95  .0744    0.000   203    7    100.0   10 
 9/16/21  4:20a   46.3   46.5   46.3    83   41.4   0.0   ---   0.00   0.0   ---   46.3   46.2   46.2   43.2  30.130  0.00  0.00     0     0.00      0     0.0  0.00   0.0   0.130   0.000   69.9    54   52.5   68.5   9.95  .0745    0.000   202    7    100.0   10 
 9/16/21  4:30a   46.3   46.3   46.3    84   41.7   0.0   ---   0.00   0.0   ---   46.3   46.3   46.3   43.3  30.129  0.00  0.00     0     0.00      0     0.0  0.00   0.0   0.130   0.000   69.9    54   52.5   68.5   9.95  .0745    0.000   202    7    100.0   10 
 9/16/21  4:40a   46.4   46.5   46.3    84   41.8   1.0    NE   0.17   3.0    NE   46.4   46.4   46.4   43.4  30.132  0.00  0.00     0     0.00      0     0.0  0.00   0.0   0.129   0.000   69.8    54   52.4   68.5   9.96  .0745    0.000   204    7    100.0   10 
 9/16/21  4:50a   46.2   46.5   46.2    84   41.6   1.0    NE   0.17   3.0    NE   46.2   46.2   46.2   43.2  30.129  0.00  0.00     0     0.00      0     0.0  0.00   0.0   0.131   0.000   69.7    54   52.3   68.4   9.96  .0745    0.000   203    7    100.0   10 
 9/16/21  5:00a   45.8   46.2   45.8    84   41.2   0.0    NE   0.00   2.0    NE   45.8   45.7   45.7   42.7  30.129  0.00  0.00     0     0.00      0     0.0  0.00   0.0   0.133   0.000   69.7    54   52.3   68.4   9.96  .0745    0.000   204    7    100.0   10 
 9/16/21  5:10a   45.4   45.8   45.4    84   40.8   1.0    NE   0.17   3.0   ENE   45.4   45.3   45.3   42.2  30.126  0.00  0.00     0     0.00      0     0.0  0.00   0.0   0.136   0.000   69.6    54   52.2   68.3   9.97  .0745    0.000   202    7    100.0   10 
 9/16/21  5:20a   44.9   45.4   44.9    85   40.7   1.0   ENE   0.17   3.0   ENE   44.9   44.8   44.8   41.7  30.126  0.00  0.00     0     0.00      0     0.0  0.00   0.0   0.140   0.000   69.6    54   52.2   68.3   9.97  .0745    0.000   201    7    100.0   10 
 9/16/21  5:30a   45.0   45.1   44.8    86   41.1   2.0     E   0.33   3.0   ESE   45.0   44.9   44.9   41.9  30.126  0.00  0.00     0     0.00      0     0.0  0.00   0.0   0.139   0.000   69.5    54   52.1   68.3   9.97  .0745    0.000   205    7    100.0   10 
 9/16/21  5:40a   44.8   45.0   44.8    86   40.9   2.0     E   0.33   4.0     E   44.8   44.7   44.7   41.6  30.124  0.00  0.00     0     0.00      0     0.0  0.00   0.0   0.140   0.000   69.4    54   52.0   68.2   9.97  .0745    0.000   200    7    100.0   10 
 9/16/21  5:50a   44.9   44.9   44.7    86   41.0   1.0     E   0.17   3.0     E   44.9   44.8   44.8   41.7  30.128  0.00  0.00     0     0.00      0     0.0  0.00   0.0   0.140   0.000   69.4    54   52.0   68.2   9.97  .0745    0.000   200    7    100.0   10 
 9/16/21  6:00a   44.9   44.9   44.8    86   41.0   1.0     E   0.17   2.0     E   44.9   44.8   44.8   41.7  30.124  0.00  0.00     0     0.00      0     0.0  0.00   0.0   0.140   0.000   69.4    54   52.0   68.2   9.97  .0745    0.000   202    7    100.0   10 
 9/16/21  6:10a   45.0   45.0   44.8    87   41.4   0.0     E   0.00   2.0     E   45.0   45.0   45.0   42.0  30.124  0.00  0.00     0     0.00      0     0.0  0.00   0.0   0.139   0.000   69.4    54   52.0   68.2   9.97  .0745    0.000   202    7    100.0   10 
 9/16/21  6:20a   45.1   45.3   45.0    86   41.2   0.0   ---   0.00   0.0   ---   45.1   45.0   45.0   42.0  30.122  0.00  0.00     0     0.00      0     0.0  0.00   0.0   0.138   0.000   69.3    54   51.9   68.1   9.98  .0746    0.000   201    7    100.0   10 
 9/16/21  6:30a   44.9   45.2   44.9    86   41.0   0.0    SE   0.00   1.0    SE   44.9   44.8   44.8   41.7  30.119  0.00  0.00     0     0.00      0     0.0  0.00   0.0   0.140   0.000   69.3    54   51.9   68.1   9.98  .0745    0.000   204    7    100.0   10 
 9/16/21  6:40a   44.3   44.9   44.3    86   40.4   2.0   ESE   0.33   6.0   ESE   44.3   44.2   44.2   41.1  30.119  0.00  0.00     0     0.00      0     0.0  0.00   0.0   0.144   0.000   69.2    54   51.8   68.1   9.98  .0746    0.000   205    7    100.0   10 
 9/16/21  6:50a   44.4   44.4   44.2    87   40.8   2.0    NE   0.33   4.0    NE   44.4   44.4   44.4   41.3  30.116  0.00  0.00     0     0.00      0     0.0  0.00   0.0   0.143   0.000   69.2    54   51.8   68.1   9.98  .0746    0.000   202    7    100.0   10 
 9/16/21  7:00a   44.3   44.4   44.3    87   40.7   2.0    NE   0.33   4.0    NE   44.3   44.3   44.3   41.3  30.114  0.00  0.00     2     0.03      5     0.0  0.00   0.0   0.144   0.000   69.2    54   51.8   68.1   9.98  .0745    0.000   203    7    100.0   10 
 9/16/21  7:10a   43.8   44.2   43.7    87   40.2   2.0    NE   0.33   3.0    NE   43.8   43.8   43.8   40.9  30.109  0.00  0.00     7     0.10      9     0.0  0.00   0.0   0.147   0.000   69.2    54   51.8   68.1   9.98  .0745    0.000   204    7    100.0   10 
 9/16/21  7:20a   43.8   43.8   43.6    88   40.5   3.0    NE   0.50   8.0   ESE   42.7   43.8   42.7   39.9  30.107  0.00  0.00    10     0.14     11     0.0  0.00   0.0   0.147   0.000   69.1    54   51.8   68.0   9.99  .0745    0.000   205    7    100.0   10 
 9/16/21  7:30a   44.5   44.5   43.8    88   41.2   3.0     E   0.50   8.0     E   43.5   44.5   43.5   40.7  30.111  0.00  0.00    12     0.17     14     0.0  0.00   0.0   0.142   0.000   69.1    54   51.8   68.0   9.99  .0746    0.000   203    7    100.0   10 
 9/16/21  7:40a   45.1   45.1   44.5    88   41.8   2.0   ENE   0.33   5.0   ENE   45.1   45.1   45.1   43.5  30.112  0.00  0.00    14     0.20     16     0.0  0.00   0.0   0.138   0.000   69.1    54   51.8   68.0   9.99  .0746    0.000   204    7    100.0   10 
 9/16/21  7:50a   44.9   45.1   44.8    88   41.6   2.0    SE   0.33   4.0   ENE   44.9   44.9   44.9   43.3  30.115  0.00  0.00    16     0.23     18     0.0  0.00   0.0   0.140   0.000   69.1    54   51.8   68.0   9.99  .0746    0.000   204    7    100.0   10 
 9/16/21  8:00a   45.3   45.3   44.9    88   42.0   3.0   NNE   0.50   5.0    NE   44.4   45.3   44.4   42.9  30.117  0.00  0.00    18     0.26     18     0.0  0.00   0.0   0.137   0.000   69.1    54   51.8   68.0   9.99  .0746    0.000   204    7    100.0   10 
 9/16/21  8:10a   45.3   45.4   45.2    88   42.0   2.0    NE   0.33   5.0    NE   45.3   45.3   45.3   43.8  30.118  0.00  0.00    19     0.27     19     0.0  0.00   0.0   0.137   0.000   69.1    53   51.2   67.9   9.87  .0746    0.000   201    7    100.0   10 
 9/16/21  8:20a   45.3   45.3   45.2    88   42.0   1.0    NE   0.17   2.0    NE   45.3   45.3   45.3   43.9  30.117  0.00  0.00    22     0.32     23     0.0  0.00   0.0   0.137   0.000   69.1    53   51.2   67.9   9.87  .0746    0.000   200    7    100.0   10 
 9/16/21  8:30a   45.9   45.9   45.3    89   42.8   1.0    NE   0.17   2.0    NE   45.9   46.0   46.0   44.7  30.113  0.00  0.00    25     0.36     26     0.0  0.00   0.0   0.133   0.000   69.1    53   51.2   67.9   9.87  .0746    0.000   203    7    100.0   10 
 9/16/21  8:40a   46.1   46.2   45.9    89   43.0   1.0    NE   0.17   2.0    NE   46.1   46.2   46.2   45.0  30.109  0.00  0.00    27     0.39     28     0.0  0.00   0.0   0.131   0.000   69.1    53   51.2   67.9   9.87  .0746    0.000   205    7    100.0   10 
 9/16/21  8:50a   46.8   46.8   46.1    90   44.0   2.0    NE   0.33   5.0     N   46.8   47.0   47.0   45.8  30.108  0.00  0.00    28     0.40     28     0.0  0.00   0.0   0.126   0.000   69.0    53   51.2   67.8   9.87  .0746    0.000   204    7    100.0   10 
 9/16/21  9:00a   47.6   47.7   46.8    90   44.8   3.0    NE   0.50   7.0     N   47.0   47.8   47.2   45.9  30.106  0.00  0.00    27     0.39     30     0.0  0.00   0.0   0.121   0.000   69.1    53   51.2   67.9   9.87  .0746    0.001   204    7    100.0   10 
 9/16/21  9:10a   48.2   48.2   47.7    90   45.4   2.0    NE   0.33   4.0    NE   48.2   48.4   48.4   47.3  30.107  0.00  0.00    31     0.44     33     0.0  0.00   0.0   0.117   0.000   69.1    53   51.2   67.9   9.87  .0746    0.000   203    7    100.0   10 
 9/16/21  9:20a   48.8   48.8   48.2    90   46.0   3.0    NE   0.50   5.0    NE   48.3   49.1   48.6   47.4  30.110  0.00  0.00    31     0.44     33     0.0  0.00   0.0   0.113   0.000   69.1    53   51.2   67.9   9.87  .0746    0.000   205    7    100.0   10 
 9/16/21  9:30a   49.4   49.4   48.9    91   46.9   2.0    NE   0.33   5.0    NE   49.4   49.7   49.7   48.5  30.109  0.00  0.00    31     0.44     33     0.0  0.00   0.0   0.108   0.000   69.1    53   51.2   67.9   9.87  .0746    0.000   202    7    100.0   10 
 9/16/21  9:40a   50.0   50.0   49.4    90   47.2   3.0   ENE   0.50   8.0   ENE   49.7   50.3   50.0   48.8  30.108  0.00  0.00    29     0.42     33     0.0  0.00   0.0   0.104   0.000   69.2    53   51.3   68.0   9.87  .0746    0.000   201    7    100.0   10 
 9/16/21  9:50a   50.6   50.6   50.0    88   47.2   4.0   ENE   0.67   8.0   NNE   49.6   50.8   49.8   48.6  30.106  0.00  0.00    31     0.44     33     0.0  0.00   0.0   0.100   0.000   69.2    53   51.3   68.0   9.87  .0745    0.000   204    7    100.0   10 
 9/16/21 10:00a   50.7   50.7   50.6    87   47.0   5.0    NE   0.83   8.0   NNE   49.0   50.8   49.1   47.9  30.105  0.00  0.00    32     0.46     33     0.0  0.00   0.0   0.099   0.000   69.2    53   51.3   68.0   9.87  .0745    0.001   201    7    100.0   10 
 9/16/21 10:10a   51.5   51.5   50.7    86   47.5   4.0   ENE   0.67   7.0   NNE   50.6   51.5   50.6   49.4  30.105  0.00  0.00    33     0.47     35     0.0  0.00   0.0   0.094   0.000   69.2    53   51.3   68.0   9.87  .0745    0.000   202    7    100.0   10 
 9/16/21 10:20a   51.9   51.9   51.5    85   47.5   5.0    NE   0.83   8.0   NNE   50.5   51.9   50.5   49.3  30.102  0.00  0.00    33     0.47     33     0.0  0.00   0.0   0.091   0.000   69.2    53   51.3   68.0   9.87  .0745    0.000   204    7    100.0   10 
 9/16/21 10:30a   52.6   52.6   51.9    84   47.9   5.0    NE   0.83  10.0    NE   51.3   52.5   51.2   50.0  30.098  0.00  0.00    33     0.47     35     0.0  0.00   0.0   0.086   0.000   69.3    53   51.4   68.1   9.86  .0745    0.000   205    7    100.0   10 
 9/16/21 10:40a   53.0   53.0   52.5    82   47.7   6.0   ENE   1.00  11.0   NNE   51.2   52.8   51.0   49.8  30.098  0.00  0.00    34     0.49     35     0.0  0.00   0.0   0.083   0.000   69.4    53   51.5   68.1   9.86  .0745    0.000   203    7    100.0   10 
 9/16/21 10:50a   53.2   53.2   53.0    82   47.8   7.0   NNE   1.17  14.0   NNE   51.0   53.0   50.8   49.6  30.107  0.00  0.00    36     0.52     37     0.0  0.00   0.0   0.082   0.000   69.4    53   51.5   68.1   9.86  .0745    0.000   202    7    100.0   10 
 9/16/21 11:00a   53.2   53.2   53.1    82   47.8   7.0   ENE   1.17  13.0   NNE   51.0   53.0   50.8   49.6  30.102  0.00  0.00    35     0.50     35     0.0  0.00   0.0   0.082   0.000   69.5    53   51.6   68.2   9.86  .0745    0.001   201    7    100.0   10 
 9/16/21 11:10a   54.0   54.0   53.2    80   48.0   8.0    NE   1.33  15.0    NE   51.3   53.7   51.0   49.8  30.092  0.00  0.00    35     0.50     37     0.0  0.00   0.0   0.076   0.000   69.5    53   51.6   68.2   9.86  .0745    0.000   202    7    100.0   10 
 9/16/21 11:20a   54.1   54.3   54.0    78   47.4   9.0   ENE   1.50  14.0   NNE   50.7   53.7   50.3   49.2  30.092  0.00  0.00    38     0.54     39     0.0  0.00   0.0   0.076   0.000   69.7    54   52.3   68.4   9.96  .0744    0.000   200    7    100.0   10 
 9/16/21 11:30a   53.8   54.1   53.8    79   47.4   9.0   ENE   1.50  16.0     E   50.4   53.5   50.1   49.1  30.085  0.00  0.00    40     0.57     42     0.0  0.00   0.0   0.078   0.000   69.8    56   53.4   68.7  10.35  .0743    0.000   203    7    100.0   10 
 9/16/21 11:40a   54.2   54.2   53.8    78   47.5   9.0   ENE   1.50  14.0     E   50.8   53.8   50.4   49.3  30.080  0.00  0.00    40     0.57     42     0.0  0.00   0.0   0.075   0.000   70.1    56   53.7   68.9  10.35  .0743    0.000   203    7    100.0   10 
 9/16/21 11:50a   54.7   54.8   54.3    78   48.0   8.0    NE   1.33  15.0   NNE   52.1   54.3   51.7   50.8  30.073  0.00  0.00    45     0.65     53     0.0  0.00   0.0   0.072   0.000   70.2    56   53.8   69.1  10.35  .0742    0.000   205    7    100.0   10 
 9/16/21 12:00p   55.2   55.2   54.7    79   48.8   8.0   ENE   1.33  16.0     E   52.7   54.9   52.4   60.1  30.070  0.00  0.00   456     6.54    721     1.6  0.11   2.3   0.068   0.000   70.3    55   53.4   69.1  10.14  .0742    0.003   202    7    100.0   10 
 9/16/21 12:10p   55.5   55.6   55.2    79   49.1   7.0   ENE   1.17  15.0   NNE   53.8   55.2   53.5   63.9  30.066  0.00  0.00   748    10.72    761     3.2  0.23   3.7   0.066   0.000   70.2    54   52.8   68.9   9.95  .0743    0.000   200    7    100.0   10 
 9/16/21 12:20p   55.3   55.5   55.3    79   48.9  10.0   ENE   1.67  15.0   NNW   51.5   55.0   51.2   60.4  30.058  0.00  0.00   766    10.98    773     3.8  0.27   3.8   0.067   0.000   70.1    53   52.2   68.7   9.85  .0743    0.000   202    7    100.0   10 
 9/16/21 12:30p   55.7   55.8   55.3    79   49.3  10.0   ENE   1.67  17.0   ENE   51.9   55.3   51.5   60.7  30.054  0.00  0.00   777    11.14    780     3.9  0.28   3.9   0.065   0.000   70.0    53   52.1   68.5   9.85  .0743    0.000   204    7    100.0   10 
 9/16/21 12:40p   56.0   56.0   55.7    79   49.6  10.0   ENE   1.67  18.0     N   52.3   55.6   51.9   61.0  30.052  0.00  0.00   785    11.25    789     3.9  0.28   4.0   0.063   0.000   70.0    53   52.1   68.5   9.85  .0743    0.000   201    7    100.0   10 
 9/16/21 12:50p   56.3   56.3   56.0    80   50.2  10.0   ENE   1.67  16.0     E   52.7   56.0   52.4   61.5  30.052  0.00  0.00   792    11.35    795     4.0  0.29   4.0   0.060   0.000   69.9    52   51.5   68.4   9.65  .0743    0.000   198    7    100.0   10 
 9/16/21  1:00p   56.4   56.4   56.2    80   50.3  10.0    NE   1.67  18.0     N   52.8   56.1   52.5   61.6  30.051  0.00  0.00   796    11.41    800     4.0  0.29   4.1   0.060   0.000   69.9    53   52.0   68.5   9.85  .0743    0.017   203    7    100.0   10 
 9/16/21  1:10p   56.5   56.7   56.4    80   50.4  12.0    NE   2.00  18.0    NE   51.8   56.2   51.5   60.0  30.046  0.00  0.00   798    11.44    802     4.1  0.29   4.1   0.059   0.000   69.9    53   52.0   68.5   9.85  .0743    0.000   205    7    100.0   10 
 9/16/21  1:20p   56.0   56.5   56.0    81   50.3  12.0    NE   2.00  20.0    NE   51.2   55.7   50.9   59.4  30.039  0.00  0.00   800    11.47    802     4.1  0.29   4.1   0.063   0.000   69.9    52   51.5   68.4   9.65  .0743    0.000   204    7    100.0   10 
 9/16/21  1:30p   55.9   56.1   55.8    81   50.2  12.0    NE   2.00  19.0   NNE   51.1   55.6   50.8   59.4  30.043  0.00  0.00   788    11.30    802     4.0  0.29   4.1   0.063   0.000   69.8    52   51.4   68.3   9.65  .0743    0.000   204    7    100.0   10 
 9/16/21  1:40p   56.0   56.0   55.7    82   50.6  11.0   ENE   1.83  18.0    NE   51.7   55.8   51.5   60.2  30.039  0.00  0.00   796    11.41    802     4.0  0.29   4.0   0.063   0.000   69.8    52   51.4   68.3   9.65  .0743    0.000   204    7    100.0   10 
 9/16/21  1:50p   56.0   56.3   56.0    81   50.3  13.0    NE   2.17  22.0   ENE   50.7   55.7   50.4   58.7  30.035  0.00  0.00   786    11.27    795     4.0  0.29   4.0   0.063   0.000   69.8    53   51.9   68.4   9.85  .0743    0.000   204    7    100.0   10 
 9/16/21  2:00p   56.5   56.5   55.9    82   51.1  11.0    NE   1.83  19.0    NE   52.3   56.3   52.1   61.0  30.034  0.00  0.00   776    11.12    789     3.9  0.28   3.9   0.059   0.000   69.9    52   51.5   68.4   9.65  .0743    0.017   204    7    100.0   10 
 9/16/21  2:10p   56.4   56.6   56.4    82   51.0  13.0    NE   2.17  20.0   NNE   51.2   56.2   51.0   59.2  30.034  0.00  0.00   777    11.14    784     3.8  0.27   3.9   0.060   0.000   69.9    53   52.0   68.5   9.85  .0742    0.000   203    7    100.0   10 
 9/16/21  2:20p   56.3   56.4   56.3    82   50.9  14.0    NE   2.33  24.0   ENE   50.7   56.1   50.5   58.3  30.028  0.00  0.00   771    11.05    775     3.7  0.26   3.8   0.060   0.000   69.9    53   52.0   68.5   9.85  .0742    0.000   203    7    100.0   10 
 9/16/21  2:30p   56.5   56.5   56.2    82   51.1  13.0    NE   2.17  21.0   ENE   51.3   56.3   51.1   59.3  30.024  0.00  0.00   759    10.88    763     3.6  0.26   3.6   0.059   0.000   70.0    53   52.1   68.5   9.85  .0742    0.000   202    7    100.0   10 
 9/16/21  2:40p   57.0   57.0   56.5    83   51.9  12.0   ENE   2.00  21.0   NNE   52.3   56.8   52.1   60.6  30.023  0.00  0.00   749    10.74    756     3.5  0.25   3.5   0.056   0.000   70.0    53   52.1   68.5   9.85  .0742    0.000   203    7    100.0   10 
 9/16/21  2:50p   57.9   58.0   57.1    82   52.4  13.0   ENE   2.17  22.0    NE   52.9   57.7   52.7   60.9  30.020  0.00  0.00   737    10.57    744     3.3  0.24   3.4   0.049   0.000   70.1    53   52.2   68.7   9.85  .0742    0.000   202    7    100.0   10 
 9/16/21  3:00p   58.2   58.3   57.8    83   53.1  13.0   ENE   2.17  20.0    NE   53.2   58.1   53.1   61.7  30.020  0.00  0.00   666     9.55    719     3.1  0.22   3.2   0.047   0.000   70.1    53   52.2   68.7   9.85  .0742    0.016   205    7    100.0   10 
 9/16/21  3:10p   58.6   58.6   58.2    83   53.5  14.0    NE   2.33  22.0    NE   53.3   58.5   53.2   61.3  30.014  0.00  0.00   703    10.08    712     3.0  0.21   3.0   0.044   0.000   70.2    53   52.3   68.8   9.84  .0741    0.000   204    7    100.0   10 
 9/16/21  3:20p   58.5   58.6   58.4    83   53.4  14.0    NE   2.33  22.0    NE   53.2   58.4   53.1   61.2  30.013  0.00  0.00   685     9.82    694     2.8  0.20   2.9   0.045   0.000   70.3    53   52.4   68.9   9.84  .0741    0.000   201    7    100.0   10 
 9/16/21  3:30p   58.3   58.6   58.3    82   52.8  14.0    NE   2.33  23.0   NNE   53.0   58.2   52.9   60.9  30.003  0.00  0.00   667     9.56    675     2.6  0.19   2.7   0.047   0.000   70.4    53   52.4   69.1   9.83  .0741    0.000   202    7    100.0   10 
 9/16/21  3:40p   58.1   58.3   58.1    83   53.0  13.0    NE   2.17  21.0   NNE   53.1   58.0   53.0   61.3  30.003  0.00  0.00   642     9.20    650     2.4  0.17   2.5   0.048   0.000   70.5    53   52.5   69.2   9.83  .0741    0.000   204    7    100.0   10 
 9/16/21  3:50p   58.1   58.2   58.1    83   53.0  12.0    NE   2.00  20.0   NNE   53.6   58.0   53.5   62.1  30.000  0.00  0.00   618     8.86    633     2.2  0.16   2.3   0.048   0.000   70.2    53   52.3   68.8   9.84  .0741    0.000   203    7    100.0   10 
 9/16/21  4:00p   57.7   58.1   57.7    83   52.6  12.0    NE   2.00  21.0    NE   53.1   57.5   52.9   61.5  29.990  0.00  0.00   584     8.37    592     2.0  0.14   2.1   0.051   0.000   70.1    53   52.2   68.7   9.85  .0741    0.015   201    7    100.0   10 
 9/16/21  4:10p   57.7   57.8   57.6    83   52.6  13.0    NE   2.17  21.0   NNE   52.7   57.5   52.5   60.8  29.981  0.00  0.00   557     7.98    571     1.8  0.13   1.9   0.051   0.000   70.2    53   52.3   68.8   9.84  .0741    0.000   203    7    100.0   10 
 9/16/21  4:20p   57.6   57.7   57.5    83   52.5  12.0    NE   2.00  20.0    NE   53.0   57.4   52.8   61.3  29.976  0.00  0.00   528     7.57    541     1.6  0.11   1.7   0.051   0.000   70.3    53   52.4   68.9   9.84  .0740    0.000   204    7    100.0   10 
 9/16/21  4:30p   57.8   57.8   57.5    83   52.7  10.0   ENE   1.67  17.0   NNE   54.4   57.7   54.3   63.1  29.971  0.00  0.00   489     7.01    497     1.4  0.10   1.5   0.050   0.000   70.4    53   52.4   69.1   9.83  .0740    0.000   204    7    100.0   10 
 9/16/21  4:40p   57.8   58.0   57.8    83   52.7  10.0   ENE   1.67  17.0    NE   54.4   57.7   54.3   62.8  29.969  0.00  0.00   450     6.45    475     1.3  0.09   1.3   0.050   0.000   70.4    53   52.4   69.1   9.83  .0740    0.000   202    7    100.0   10 
 9/16/21  4:50p   57.5   57.8   57.5    84   52.7  11.0   ENE   1.83  19.0    NE   53.5   57.4   53.4   61.0  29.962  0.00  0.00   398     5.71    434     1.1  0.08   1.1   0.052   0.000   69.8    53   51.9   68.4   9.85  .0741    0.000   203    7    100.0   10 
 9/16/21  5:00p   57.3   57.5   57.3    83   52.2  11.0    NE   1.83  18.0     N   53.2   57.1   53.0   60.2  29.958  0.00  0.00   360     5.16    385     0.9  0.06   1.0   0.053   0.000   69.4    54   52.0   68.2   9.97  .0741    0.011   205    7    100.0   10 
 9/16/21  5:10p   56.8   57.3   56.8    84   52.0  10.0    NE   1.67  17.0    NE   53.3   56.7   53.2   60.3  29.957  0.00  0.00   329     4.72    359     0.8  0.06   0.8   0.057   0.000   69.5    54   52.1   68.3   9.97  .0741    0.000   202    7    100.0   10 
 9/16/21  5:20p   56.4   56.8   56.4    84   51.6  10.0    NE   1.67  17.0    NE   52.8   56.3   52.7   59.1  29.959  0.00  0.00   290     4.16    338     0.7  0.05   0.7   0.060   0.000   69.5    54   52.1   68.3   9.97  .0741    0.000   203    7    100.0   10 
 9/16/21  5:30p   56.5   56.5   56.3    85   52.0   8.0   ENE   1.33  14.0     E   54.3   56.4   54.2   60.8  29.956  0.00  0.00   266     3.81    316     0.6  0.04   0.6   0.059   0.000   69.6    54   52.2   68.3   9.97  .0741    0.000   202    7    100.0   10 
 9/16/21  5:40p   56.4   56.5   56.3    85   51.9   9.0   ENE   1.50  16.0     E   53.4   56.3   53.3   60.6  29.954  0.00  0.00   304     4.36    316     0.5  0.04   0.5   0.060   0.000   69.8    54   52.4   68.5   9.96  .0740    0.000   204    7    100.0   10 
 9/16/21  5:50p   56.4   56.4   56.2    85   51.9   8.0   ENE   1.33  14.0    NE   54.2   56.3   54.1   60.2  29.948  0.00  0.00   234     3.35    276     0.0  0.00   0.0   0.060   0.000   70.0    54   52.6   68.6   9.95  .0740    0.000   203    7    100.0   10 
 9/16/21  6:00p   56.1   56.6   56.1    85   51.7   8.0   ENE   1.33  15.0   ENE   53.8   56.0   53.7   58.5  29.946  0.00  0.00   184     2.64    234     0.0  0.00   0.0   0.062   0.000   70.1    54   52.7   68.7   9.95  .0740    0.006   202    7    100.0   10 
 9/16/21  6:10p   55.4   56.1   55.4    85   51.0   7.0    NE   1.17  13.0    NE   53.7   55.3   53.6   56.6  29.947  0.00  0.00   120     1.72    160     0.0  0.00   0.0   0.067   0.000   70.2    54   52.8   68.9   9.95  .0740    0.000   203    7    100.0   10 
 9/16/21  6:20p   55.0   55.4   55.0    86   50.9   7.0    NE   1.17  15.0   ENE   53.2   54.9   53.1   54.8  29.946  0.00  0.00    84     1.20    153     0.0  0.00   0.0   0.069   0.000   70.2    54   52.8   68.9   9.95  .0740    0.000   202    7    100.0   10 
 9/16/21  6:30p   54.5   55.0   54.5    87   50.7   7.0   ENE   1.17  12.0    NE   52.6   54.5   52.6   54.5  29.948  0.00  0.00    87     1.25    114     0.0  0.00   0.0   0.073   0.000   70.3    54   52.9   69.0   9.94  .0739    0.000   203    7    100.0   10 
 9/16/21  6:40p   54.3   54.5   54.2    87   50.5   7.0   ENE   1.17  12.0     E   52.4   54.3   52.4   53.2  29.947  0.00  0.00    59     0.85     88     0.0  0.00   0.0   0.074   0.000   70.3    54   52.9   69.0   9.94  .0739    0.000   202    7    100.0   10 
 9/16/21  6:50p   54.1   54.3   54.0    88   50.6   7.0   ENE   1.17  12.0   ENE   52.1   54.1   52.1   52.7  29.945  0.00  0.00    56     0.80     74     0.0  0.00   0.0   0.076   0.000   70.4    54   53.0   69.1   9.94  .0739    0.000   202    7    100.0   10 
 9/16/21  7:00p   53.9   54.1   53.9    88   50.4   6.0   ENE   1.00  11.0     E   52.3   53.9   52.3   50.4  29.940  0.00  0.00    31     0.44     47     0.0  0.00   0.0   0.077   0.000   70.4    54   53.0   69.1   9.94  .0739    0.002   204    7    100.0   10 
 9/16/21  7:10p   53.8   53.9   53.8    89   50.6   5.0   ENE   0.83  12.0     E   52.7   53.9   52.8   50.5  29.938  0.00  0.00    16     0.23     21     0.0  0.00   0.0   0.078   0.000   70.5    54   53.1   69.3   9.94  .0739    0.000   202    7    100.0   10 
 9/16/21  7:20p   53.6   53.8   53.5    89   50.4   5.0   ENE   0.83   9.0   ENE   52.4   53.7   52.5   50.0  29.933  0.00  0.00     6     0.09     11     0.0  0.00   0.0   0.079   0.000   70.4    54   53.0   69.1   9.94  .0739    0.000   204    7    100.0   10 
 9/16/21  7:30p   53.5   53.6   53.5    89   50.3   5.0   ENE   0.83  10.0     E   52.3   53.6   52.4   49.7  29.927  0.00  0.00     0     0.00      0     0.0  0.00   0.0   0.080   0.000   70.4    54   53.0   69.1   9.94  .0739    0.000   203    7    100.0   10 
 9/16/21  7:40p   53.7   53.7   53.5    90   50.8   6.0   ENE   1.00  12.0    NE   52.0   53.8   52.1   49.4  29.929  0.00  0.00     0     0.00      0     0.0  0.00   0.0   0.078   0.000   70.4    54   53.0   69.1   9.94  .0739    0.000   203    7    100.0   10 
 9/16/21  7:50p   53.6   53.8   53.6    90   50.7   5.0   ENE   0.83  10.0    NE   52.4   53.7   52.5   49.8  29.933  0.00  0.00     0     0.00      0     0.0  0.00   0.0   0.079   0.000   70.4    54   53.0   69.1   9.94  .0739    0.000   202    7    100.0   10 
 9/16/21  8:00p   53.7   53.7   53.5    90   50.8   5.0   ENE   0.83  12.0   ENE   52.5   53.8   52.6   49.9  29.931  0.00  0.00     0     0.00      0     0.0  0.00   0.0   0.078   0.000   70.4    54   53.0   69.1   9.94  .0739    0.001   201    7    100.0   10 
 9/16/21  8:10p   54.3   54.3   53.7    91   51.7   6.0     E   1.00  13.0     E   52.8   54.4   52.9   50.3  29.932  0.00  0.00     0     0.00      0     0.0  0.00   0.0   0.074   0.000   70.4    54   53.0   69.1   9.94  .0739    0.000   204    7    100.0   10 
 9/16/21  8:20p   54.5   54.6   54.2    91   51.9   5.0     E   0.83  13.0   ENE   53.5   54.6   53.6   51.0  29.939  0.00  0.00     0     0.00      0     0.0  0.00   0.0   0.073   0.000   70.4    54   53.0   69.1   9.94  .0739    0.000   201    7    100.0   10 
 9/16/21  8:30p   54.6   54.7   54.5    91   52.0   7.0   ENE   1.17  15.0   ENE   52.7   54.7   52.8   50.2  29.947  0.00  0.00     0     0.00      0     0.0  0.00   0.0   0.072   0.000   70.4    54   53.0   69.1   9.94  .0739    0.000   204    7    100.0   10 
 9/16/21  8:40p   54.4   54.7   54.4    91   51.8   6.0   ENE   1.00  11.0   ENE   52.9   54.5   53.0   50.4  29.947  0.00  0.00     0     0.00      0     0.0  0.00   0.0   0.074   0.000   70.4    54   53.0   69.1   9.94  .0739    0.000   202    7    100.0   10 
 9/16/21  8:50p   54.3   54.4   54.2    90   51.4   5.0   ENE   0.83  10.0   ENE   53.3   54.4   53.4   50.8  29.953  0.00  0.00     0     0.00      0     0.0  0.00   0.0   0.074   0.000   70.4    54   53.0   69.1   9.94  .0739    0.000   202    7    100.0   10 
 9/16/21  9:00p   54.2   54.3   54.1    90   51.3   5.0   ENE   0.83   9.0   ENE   53.1   54.3   53.2   50.6  29.954  0.00  0.00     0     0.00      0     0.0  0.00   0.0   0.075   0.000   70.3    54   52.9   69.0   9.94  .0740    0.001   202    7    100.0   10 
 9/16/21  9:10p   54.8   54.8   54.2    91   52.2   5.0     E   0.83  12.0     E   53.9   54.9   54.0   51.4  29.952  0.00  0.00     0     0.00      0     0.0  0.00   0.0   0.071   0.000   70.3    54   52.9   69.0   9.94  .0740    0.000   202    7    100.0   10 
 9/16/21  9:20p   54.8   54.8   54.7    91   52.2   4.0     E   0.67   9.0   ENE   54.4   54.9   54.5   51.9  29.950  0.00  0.00     0     0.00      0     0.0  0.00   0.0   0.071   0.000   70.3    54   52.9   69.0   9.94  .0739    0.000   204    7    100.0   10 
 9/16/21  9:30p   54.9   55.0   54.8    91   52.3   4.0   ENE   0.67   8.0   ENE   54.5   55.0   54.6   52.0  29.946  0.00  0.00     0     0.00      0     0.0  0.00   0.0   0.070   0.000   70.3    54   52.9   69.0   9.94  .0739    0.000   204    7    100.0   10 
 9/16/21  9:40p   55.0   55.0   54.9    91   52.4   3.0     E   0.50   9.0   ENE   55.0   55.1   55.1   52.5  29.944  0.00  0.00     0     0.00      0     0.0  0.00   0.0   0.069   0.000   70.3    54   52.9   69.0   9.94  .0739    0.000   204    7    100.0   10 
 9/16/21  9:50p   54.9   55.0   54.9    91   52.3   4.0     E   0.67   9.0   NNE   54.5   55.0   54.6   52.0  29.947  0.00  0.00     0     0.00      0     0.0  0.00   0.0   0.070   0.000   70.2    54   52.8   68.9   9.95  .0740    0.000   201    7    100.0   10 
 9/16/21 10:00p   54.9   55.0   54.8    91   52.3   3.0     E   0.50   8.0   ENE   54.9   55.0   55.0   52.4  29.948  0.00  0.00     0     0.00      0     0.0  0.00   0.0   0.070   0.000   70.2    54   52.8   68.9   9.95  .0740    0.000   205    7    100.0   10 
 9/16/21 10:10p   55.1   55.1   54.8    91   52.5   5.0     E   0.83  12.0   ENE   54.2   55.2   54.3   51.7  29.944  0.00  0.00     0     0.00      0     0.0  0.00   0.0   0.069   0.000   70.2    54   52.8   68.9   9.95  .0739    0.000   204    7    100.0   10 
 9/16/21 10:20p   55.4   55.4   55.1    91   52.8   5.0     E   0.83  14.0    NE   54.6   55.5   54.7   52.1  29.937  0.00  0.00     0     0.00      0     0.0  0.00   0.0   0.067   0.000   70.2    54   52.8   68.9   9.95  .0739    0.000   203    7    100.0   10 
 9/16/21 10:30p   55.4   55.5   55.4    91   52.8   3.0     E   0.50   8.0   NNE   55.4   55.5   55.5   52.9  29.940  0.00  0.00     0     0.00      0     0.0  0.00   0.0   0.067   0.000   70.2    54   52.8   68.9   9.95  .0739    0.000   203    7    100.0   10 
 9/16/21 10:40p   55.4   55.4   55.3    90   52.5   3.0   ENE   0.50   9.0    NE   55.4   55.5   55.5   52.9  29.938  0.00  0.00     0     0.00      0     0.0  0.00   0.0   0.067   0.000   70.2    54   52.8   68.9   9.95  .0739    0.000   205    7    100.0   10 
 9/16/21 10:50p   55.3   55.4   55.3    90   52.4   3.0     E   0.50   8.0     E   55.3   55.4   55.4   52.8  29.939  0.00  0.00     0     0.00      0     0.0  0.00   0.0   0.067   0.000   70.1    54   52.7   68.7   9.95  .0740    0.000   200    7    100.0   10 
 9/16/21 11:00p   55.3   55.4   55.2    90   52.4   2.0     E   0.33   6.0   ENE   55.3   55.4   55.4   52.8  29.937  0.00  0.00     0     0.00      0     0.0  0.00   0.0   0.067   0.000   70.1    54   52.7   68.7   9.95  .0739    0.000   204    7    100.0   10 
 9/16/21 11:10p   55.0   55.2   55.0    90   52.1   2.0   ESE   0.33   4.0   ESE   55.0   55.1   55.1   52.5  29.933  0.00  0.00     0     0.00      0     0.0  0.00   0.0   0.069   0.000   70.1    54   52.7   68.7   9.95  .0739    0.000   203    7    100.0   10 
 9/16/21 11:20p   54.7   55.0   54.7    89   51.5   0.0   ESE   0.00   3.0   ESE   54.7   54.8   54.8   52.2  29.933  0.00  0.00     0     0.00      0     0.0  0.00   0.0   0.072   0.000   70.1    54   52.7   68.7   9.95  .0739    0.000   204    7    100.0   10 
 9/16/21 11:30p   54.2   54.7   54.2    90   51.3   1.0   ESE   0.17   3.0   ESE   54.2   54.3   54.3   51.7  29.936  0.00  0.00     0     0.00      0     0.0  0.00   0.0   0.075   0.000   70.1    54   52.7   68.7   9.95  .0739    0.000   204    7    100.0   10 
 9/16/21 11:40p   53.8   54.2   53.8    89   50.6   0.0   ESE   0.00   3.0   ESE   53.8   53.9   53.9   51.2  29.935  0.00  0.00     0     0.00      0     0.0  0.00   0.0   0.078   0.000   70.0    54   52.6   68.6   9.95  .0740    0.000   203    7    100.0   10 
 9/16/21 11:50p   53.2   53.7   53.2    89   50.0   1.0   ESE   0.17   3.0   ESE   53.2   53.3   53.3   50.6  29.935  0.00  0.00     0     0.00      0     0.0  0.00   0.0   0.082   0.000   70.0    54   52.6   68.6   9.95  .0740    0.000   202    7    100.0   10 
 9/17/21 12:00a   52.9   53.2   52.9    90   50.0   0.0   ESE   0.00   2.0   ESE   52.9   53.0   53.0   50.3  29.933  0.00  0.00     0     0.00      0     0.0  0.00   0.0   0.084   0.000   70.0    54   52.6   68.6   9.95  .0740    0.000   180    7     90.9   10 
 9/17/21 12:10a   52.5   52.9   52.5    89   49.4   0.0   ESE   0.00   1.0   ESE   52.5   52.6   52.6   49.9  29.931  0.00  0.00     0     0.00      0     0.0  0.00   0.0   0.087   0.000   70.0    54   52.6   68.6   9.95  .0740    0.000   201    7    100.0   10 
 9/17/21 12:20a   52.0   52.5   52.0    90   49.2   1.0   ESE   0.17   2.0   ESE   52.0   52.2   52.2   49.5  29.927  0.00  0.00     0     0.00      0     0.0  0.00   0.0   0.090   0.000   70.0    54   52.6   68.6   9.95  .0739    0.000   203    7    100.0   10 
 9/17/21 12:30a   51.6   52.0   51.6    90   48.8   1.0    SE   0.17   3.0    SE   51.6   51.8   51.8   49.1  29.923  0.00  0.00     0     0.00      0     0.0  0.00   0.0   0.093   0.000   69.9    54   52.5   68.5   9.95  .0739    0.000   203    7    100.0   10 
 9/17/21 12:40a   51.5   51.7   51.4    90   48.7   1.0   ESE   0.17   4.0   ESE   51.5   51.7   51.7   49.0  29.923  0.00  0.00     0     0.00      0     0.0  0.00   0.0   0.094   0.000   69.9    54   52.5   68.5   9.95  .0739    0.000   204    7    100.0   10 
 9/17/21 12:50a   51.3   51.5   51.3    90   48.5   2.0   ESE   0.33   4.0   ESE   51.3   51.5   51.5   48.8  29.927  0.00  0.00     0     0.00      0     0.0  0.00   0.0   0.095   0.000   69.9    54   52.5   68.5   9.95  .0740    0.000   204    7    100.0   10 
 9/17/21  1:00a   51.0   51.3   51.0    90   48.2   1.0   ESE   0.17   2.0   ESE   51.0   51.2   51.2   48.5  29.928  0.00  0.00     0     0.00      0     0.0  0.00   0.0   0.097   0.000   69.8    54   52.4   68.5   9.96  .0740    0.000   203    7    100.0   10 
 9/17/21  1:10a   50.6   51.0   50.6    90   47.8   1.0   ESE   0.17   3.0   ESE   50.6   50.8   50.8   48.0  29.930  0.00  0.00     0     0.00      0     0.0  0.00   0.0   0.100   0.000   69.8    54   52.4   68.5   9.96  .0740    0.000   204    7    100.0   10 
 9/17/21  1:20a   50.4   50.6   50.4    90   47.6   0.0   ESE   0.00   2.0   ESE   50.4   50.7   50.7   47.9  29.933  0.00  0.00     0     0.00      0     0.0  0.00   0.0   0.101   0.000   69.8    54   52.4   68.5   9.96  .0740    0.000   204    7    100.0   10 
 9/17/21  1:30a   50.1   50.4   50.1    90   47.3   0.0   ESE   0.00   2.0   ESE   50.1   50.4   50.4   47.6  29.932  0.00  0.00     0     0.00      0     0.0  0.00   0.0   0.103   0.000   69.8    54   52.4   68.5   9.96  .0740    0.000   203    7    100.0   10 
 9/17/21  1:40a   49.8   50.1   49.8    91   47.3   1.0    SE   0.17   4.0    SE   49.8   50.1   50.1   47.3  29.929  0.00  0.00     0     0.00      0     0.0  0.00   0.0   0.106   0.000   69.7    54   52.3   68.4   9.96  .0740    0.000   203    7    100.0   10 
 9/17/21  1:50a   49.5   49.8   49.5    90   46.7   1.0    SE   0.17   3.0   SSE   49.5   49.8   49.8   47.0  29.928  0.00  0.00     0     0.00      0     0.0  0.00   0.0   0.108   0.000   69.7    54   52.3   68.4   9.96  .0740    0.000   202    7    100.0   10 
 9/17/21  2:00a   49.0   49.5   49.0    91   46.5   0.0    SE   0.00   2.0    SE   49.0   49.3   49.3   46.5  29.933  0.00  0.00     0     0.00      0     0.0  0.00   0.0   0.111   0.000   69.7    54   52.3   68.4   9.96  .0740    0.000   203    7    100.0   10 
 9/17/21  2:10a   48.9   49.1   48.9    91   46.4   2.0    SE   0.33   7.0   ESE   48.9   49.2   49.2   46.4  29.928  0.00  0.00     0     0.00      0     0.0  0.00   0.0   0.112   0.000   69.6    54   52.2   68.3   9.97  .0740    0.000   200    7    100.0   10 
 9/17/21  2:20a   48.9   49.0   48.8    91   46.4   1.0    SE   0.17   3.0    SE   48.9   49.2   49.2   46.4  29.931  0.00  0.00     0     0.00      0     0.0  0.00   0.0   0.112   0.000   69.6    54   52.2   68.3   9.97  .0740    0.000   204    7    100.0   10 
 9/17/21  2:30a   48.8   49.0   48.8    91   46.3   1.0    SE   0.17   3.0    SE   48.8   49.1   49.1   46.3  29.924  0.00  0.00     0     0.00      0     0.0  0.00   0.0   0.113   0.000   69.5    54   52.1   68.3   9.97  .0740    0.000   203    7    100.0   10 
 9/17/21  2:40a   48.6   48.8   48.5    91   46.1   1.0    SE   0.17   2.0    SE   48.6   48.9   48.9   46.1  29.927  0.00  0.00     0     0.00      0     0.0  0.00   0.0   0.114   0.000   69.5    54   52.1   68.3   9.97  .0740    0.000   202    7    100.0   10 
 9/17/21  2:50a   48.4   48.6   48.4    92   46.2   0.0    SE   0.00   3.0    SE   48.4   48.7   48.7   45.9  29.927  0.00  0.00     0     0.00      0     0.0  0.00   0.0   0.115   0.000   69.5    54   52.1   68.3   9.97  .0740    0.000   203    7    100.0   10 
 9/17/21  3:00a   48.4   48.5   48.4    92   46.2   0.0   ---   0.00   0.0   ---   48.4   48.7   48.7   45.9  29.928  0.00  0.00     0     0.00      0     0.0  0.00   0.0   0.115   0.000   69.4    54   52.0   68.2   9.97  .0740    0.000   203    7    100.0   10 
 9/17/21  3:10a   48.3   48.4   48.3    92   46.1   0.0    SE   0.00   2.0    SE   48.3   48.6   48.6   45.8  29.931  0.00  0.00     0     0.00      0     0.0  0.00   0.0   0.116   0.000   69.4    54   52.0   68.2   9.97  .0741    0.000   203    7    100.0   10 
 9/17/21  3:20a   48.4   48.4   48.2    92   46.2   2.0    SE   0.33   6.0   SSE   48.4   48.7   48.7   45.9  29.935  0.00  0.00     0     0.00      0     0.0  0.00   0.0   0.115   0.000   69.3    54   51.9   68.1   9.98  .0741    0.000   201    7    100.0   10 
 9/17/21  3:30a   48.4   48.5   48.4    92   46.2   2.0     S   0.33   6.0   SSW   48.4   48.7   48.7   45.9  29.933  0.00  0.00     0     0.00      0     0.0  0.00   0.0   0.115   0.000   69.3    54   51.9   68.1   9.98  .0741    0.000   204    7    100.0   10 
 9/17/21  3:40a   48.3   48.5   48.3    92   46.1   2.0   SSE   0.33   5.0   SSE   48.3   48.6   48.6   45.8  29.925  0.00  0.00     0     0.00      0     0.0  0.00   0.0   0.116   0.000   69.2    54   51.8   68.1   9.98  .0741    0.000   205    7    100.0   10 
 9/17/21  3:50a   48.3   48.3   48.2    92   46.1   1.0   SSE   0.17   4.0   SSE   48.3   48.6   48.6   45.8  29.921  0.00  0.00     0     0.00      0     0.0  0.00   0.0   0.116   0.000   69.2    54   51.8   68.1   9.98  .0741    0.000   201    7    100.0   10 
 9/17/21  4:00a   48.3   48.4   48.2    92   46.1   3.0     S   0.50   5.0     S   47.7   48.6   48.0   45.2  29.922  0.00  0.00     0     0.00      0     0.0  0.00   0.0   0.116   0.000   69.2    54   51.8   68.1   9.98  .0741    0.000   201    7    100.0   10 
 9/17/21  4:10a   48.4   48.4   48.2    92   46.2   2.0   SSE   0.33   7.0   ESE   48.4   48.7   48.7   45.9  29.920  0.00  0.00     0     0.00      0     0.0  0.00   0.0   0.115   0.000   69.1    54   51.8   68.0   9.99  .0741    0.000   201    7    100.0   10 
 9/17/21  4:20a   48.6   48.6   48.3    93   46.7   1.0   SSE   0.17   6.0     E   48.6   49.0   49.0   46.2  29.925  0.00  0.00     0     0.00      0     0.0  0.00   0.0   0.114   0.000   69.1    54   51.8   68.0   9.99  .0741    0.000   203    7    100.0   10 
 9/17/21  4:30a   48.5   48.7   48.5    92   46.3   4.0     S   0.67   6.0     S   47.2   48.8   47.5   44.7  29.928  0.00  0.00     0     0.00      0     0.0  0.00   0.0   0.115   0.000   69.0    54   51.7   67.9   9.99  .0741    0.000   201    7    100.0   10 
 9/17/21  4:40a   48.4   48.5   48.2    92   46.2   3.0     S   0.50   6.0     S   47.8   48.7   48.1   45.3  29.923  0.00  0.00     0     0.00      0     0.0  0.00   0.0   0.115   0.000   69.0    54   51.7   67.9   9.99  .0741    0.000   202    7    100.0   10 
 9/17/21  4:50a   48.7   48.8   48.3    92   46.5   3.0     S   0.50   6.0     S   48.2   49.1   48.6   45.8  29.924  0.00  0.00     0     0.00      0     0.0  0.00   0.0   0.113   0.000   69.0    54   51.7   67.9   9.99  .0741    0.000   203    7    100.0   10 
 9/17/21  5:00a   48.4   48.7   48.4    92   46.2   2.0     S   0.33   6.0     S   48.4   48.7   48.7   45.9  29.926  0.00  0.00     0     0.00      0     0.0  0.00   0.0   0.115   0.000   68.9    54   51.6   67.8   9.99  .0741    0.000   205    7    100.0   10 
 9/17/21  5:10a   48.0   48.4   47.9    92   45.8   3.0     S   0.50   7.0     S   47.4   48.3   47.7   44.8  29.929  0.00  0.00     0     0.00      0     0.0  0.00   0.0   0.118   0.000   68.9    54   51.6   67.8   9.99  .0741    0.000   204    7    100.0   10 
 9/17/21  5:20a   48.0   48.1   47.9    92   45.8   2.0    SE   0.33   6.0    SE   48.0   48.3   48.3   45.4  29.927  0.00  0.00     0     0.00      0     0.0  0.00   0.0   0.118   0.000   68.8    54   51.5   67.8  10.00  .0741    0.000   204    7    100.0   10 
 9/17/21  5:30a   47.8   48.0   47.8    92   45.6   2.0     S   0.33   6.0     S   47.8   48.1   48.1   45.2  29.927  0.00  0.00     0     0.00      0     0.0  0.00   0.0   0.119   0.000   68.8    54   51.5   67.8  10.00  .0741    0.000   202    7    100.0   10 
 9/17/21  5:40a   47.7   47.9   47.7    92   45.5   3.0     S   0.50   7.0   ESE   47.1   48.0   47.4   44.5  29.925  0.00  0.00     0     0.00      0     0.0  0.00   0.0   0.120   0.000   68.7    54   51.4   67.7  10.00  .0742    0.000   203    7    100.0   10 
 9/17/21  5:50a   47.9   47.9   47.7    93   46.0   2.0   SSE   0.33   6.0     S   47.9   48.2   48.2   45.3  29.922  0.00  0.00     0     0.00      0     0.0  0.00   0.0   0.119   0.000   68.7    54   51.4   67.7  10.00  .0742    0.000   203    7    100.0   10 
 9/17/21  6:00a   48.7   48.7   47.9    94   47.1   2.0     S   0.33   6.0     S   48.7   49.1   49.1   46.3  29.919  0.00  0.00     0     0.00      0     0.0  0.00   0.0   0.113   0.000   68.7    54   51.4   67.7  10.00  .0741    0.000   203    7    100.0   10 
 9/17/21  6:10a   49.2   49.2   48.6    93   47.3   3.0     S   0.50   6.0     S   48.7   49.6   49.1   46.3  29.916  0.00  0.00     0     0.00      0     0.0  0.00   0.0   0.110   0.000   68.7    54   51.4   67.7  10.00  .0741    0.000   205    7    100.0   10 
 9/17/21  6:20a   49.5   49.5   49.1    93   47.6   3.0     S   0.50   6.0     S   49.1   49.9   49.5   46.7  29.917  0.00  0.00     0     0.00      0     0.0  0.00   0.0   0.108   0.000   68.6    54   51.3   67.6  10.01  .0742    0.000   202    7    100.0   10 
 9/17/21  6:30a   49.3   49.6   49.3    92   47.1   3.0     S   0.50   5.0   SSW   48.9   49.7   49.3   46.5  29.916  0.00  0.00     0     0.00      0     0.0  0.00   0.0   0.109   0.000   68.6    54   51.3   67.6  10.01  .0742    0.000   204    7    100.0   10 
 9/17/21  6:40a   49.2   49.3   49.2    92   47.0   3.0     S   0.50   6.0     S   48.7   49.6   49.1   46.3  29.914  0.00  0.00     0     0.00      0     0.0  0.00   0.0   0.110   0.000   68.6    54   51.3   67.6  10.01  .0742    0.000   204    7    100.0   10 
 9/17/21  6:50a   49.0   49.2   48.9    92   46.8   4.0     S   0.67   9.0   SSE   47.7   49.4   48.1   45.3  29.916  0.00  0.00     0     0.00      0     0.0  0.00   0.0   0.111   0.000   68.6    54   51.3   67.6  10.01  .0742    0.000   205    7    100.0   10 
 9/17/21  7:00a   49.1   49.1   48.8    92   46.9   3.0     S   0.50   7.0     S   48.6   49.5   49.0   46.2  29.917  0.00  0.00     2     0.03      5     0.0  0.00   0.0   0.110   0.000   68.6    54   51.3   67.6  10.01  .0742    0.000   201    7    100.0   10 
 9/17/21  7:10a   49.2   49.3   49.1    92   47.0   3.0     S   0.50   6.0     S   48.7   49.6   49.1   46.4  29.919  0.00  0.00     7     0.10      9     0.0  0.00   0.0   0.110   0.000   68.6    54   51.3   67.6  10.01  .0742    0.000   203    7    100.0   10 
 9/17/21  7:20a   49.1   49.2   49.0    92   46.9   1.0     S   0.17   4.0     S   49.1   49.5   49.5   46.9  29.916  0.00  0.00    11     0.16     14     0.0  0.00   0.0   0.110   0.000   68.6    54   51.3   67.6  10.01  .0742    0.000   202    7    100.0   10 
 9/17/21  7:30a   49.6   49.6   49.0    92   47.4   2.0     S   0.33   6.0   ESE   49.6   50.0   50.0   47.6  29.911  0.00  0.00    17     0.24     23     0.0  0.00   0.0   0.107   0.000   68.6    54   51.3   67.6  10.01  .0741    0.000   204    7    100.0   10 
 9/17/21  7:40a   50.2   50.2   49.6    92   48.0   2.0    SE   0.33   8.0     N   50.2   50.6   50.6   50.2  29.907  0.00  0.00    35     0.50     42     0.0  0.00   0.0   0.103   0.000   68.6    54   51.3   67.6  10.01  .0741    0.000   200    7    100.0   10 
 9/17/21  7:50a   51.1   51.1   50.3    92   48.9   3.0     S   0.50   9.0   ESE   50.9   51.4   51.2   51.3  29.909  0.00  0.00    45     0.65     49     0.0  0.00   0.0   0.097   0.000   68.6    54   51.3   67.6  10.01  .0741    0.000   204    7    100.0   10 
 9/17/21  8:00a   51.9   51.9   51.1    92   49.6   2.0     S   0.33   9.0     E   51.9   52.1   52.1   52.8  29.906  0.00  0.00    58     0.83     60     0.0  0.00   0.0   0.091   0.000   68.6    54   51.3   67.6  10.01  .0741    0.001   201    7    100.0   10 
 9/17/21  8:10a   52.5   52.5   51.9    91   49.9   2.0     S   0.33   5.0   SSW   52.5   52.7   52.7   53.2  29.906  0.00  0.00    55     0.79     65     0.0  0.00   0.0   0.087   0.000   68.7    54   51.4   67.7  10.00  .0741    0.000   203    7    100.0   10 
 9/17/21  8:20a   52.8   52.8   52.5    90   49.9   2.0     S   0.33   8.0   ESE   52.8   52.9   52.9   54.1  29.902  0.00  0.00    75     1.08     77     0.0  0.00   0.0   0.085   0.000   68.7    54   51.4   67.7  10.00  .0741    0.000   203    7    100.0   10 
 9/17/21  8:30a   53.4   53.4   52.8    89   50.2   3.0     S   0.50   8.0    SE   53.4   53.5   53.5   55.2  29.899  0.00  0.00    89     1.28    107     0.0  0.00   0.0   0.081   0.000   68.7    54   51.4   67.7  10.00  .0741    0.000   200    7    100.0   10 
 9/17/21  8:40a   53.5   53.5   53.3    88   50.0   4.0     S   0.67  10.0     N   52.9   53.5   52.9   55.1  29.899  0.00  0.00   106     1.52    111     0.0  0.00   0.0   0.080   0.000   68.8    54   51.5   67.8  10.00  .0741    0.000   204    7    100.0   10 
 9/17/21  8:50a   54.1   54.1   53.5    87   50.3   3.0     S   0.50   7.0   ESE   54.1   54.1   54.1   55.9  29.900  0.00  0.00    98     1.40    116     0.2  0.01   0.5   0.076   0.000   68.8    53   51.0   67.7   9.87  .0741    0.000   204    7    100.0   10 
 9/17/21  9:00a   54.5   54.6   54.1    86   50.4   3.0     S   0.50   8.0   SSW   54.5   54.4   54.4   56.8  29.903  0.00  0.00   118     1.69    120     0.5  0.04   0.5   0.073   0.000   68.8    53   51.0   67.7   9.87  .0741    0.002   204    7    100.0   10 
 9/17/21  9:10a   55.0   55.0   54.6    85   50.6   3.0     S   0.50   8.0     N   55.0   54.9   54.9   56.4  29.905  0.00  0.00    96     1.38    109     0.6  0.04   0.6   0.069   0.000   68.8    53   51.0   67.7   9.87  .0741    0.000   204    7    100.0   10 
 9/17/21  9:20a   55.3   55.4   55.0    85   50.9   3.0     S   0.50   7.0     S   55.3   55.2   55.2   56.5  29.905  0.00  0.00    93     1.33    113     0.7  0.05   0.8   0.067   0.000   68.9    53   51.1   67.8   9.87  .0741    0.000   201    7    100.0   10 
 9/17/21  9:30a   56.1   56.1   55.4    84   51.3   4.0     S   0.67  14.0   SSW   55.9   56.0   55.8   58.8  29.907  0.00  0.00   147     2.11    163     0.9  0.06   0.9   0.062   0.000   69.0    53   51.2   67.8   9.87  .0741    0.000   203    7    100.0   10 
 9/17/21  9:40a   56.4   56.4   56.1    83   51.3   5.0     S   0.83  12.0     N   55.7   56.2   55.5   58.2  29.907  0.00  0.00   144     2.06    160     0.9  0.06   1.0   0.060   0.000   69.0    53   51.2   67.8   9.87  .0741    0.000   202    7    100.0   10 
 9/17/21  9:50a   56.3   56.5   56.3    82   50.9   4.0     S   0.67   8.0     S   56.2   56.1   56.0   57.7  29.899  0.00  0.00   116     1.66    130     1.0  0.07   1.1   0.060   0.000   69.1    53   51.2   67.9   9.87  .0740    0.000   201    7    100.0   10 
 9/17/21 10:00a   57.1   57.1   56.3    82   51.7   4.0     S   0.67  10.0   SSW   57.1   56.9   56.9   58.7  29.901  0.00  0.00   120     1.72    142     1.1  0.08   1.2   0.055   0.000   69.1    53   51.2   67.9   9.87  .0741    0.003   205    7    100.0   10 
 9/17/21 10:10a   58.0   58.0   57.2    80   51.9   4.0     S   0.67  11.0     S   58.0   57.8   57.8   61.2  29.896  0.00  0.00   179     2.57    204     1.3  0.09   1.4   0.049   0.000   69.2    53   51.3   68.0   9.87  .0740    0.000   201    7    100.0   10 
 9/17/21 10:20a   58.3   58.5   58.0    80   52.2   7.0   SSW   1.17  15.0     N   57.2   58.1   57.0   61.4  29.901  0.00  0.00   228     3.27    237     1.6  0.11   1.6   0.047   0.000   69.0    52   50.6   67.8   9.67  .0741    0.000   204    7    100.0   10 
 9/17/21 10:30a   55.5   58.3   55.5    83   50.4  13.0     N   2.17  19.0   SSE   50.2   55.3   50.0   52.3  29.903  0.00  0.00   172     2.47    211     1.4  0.10   1.5   0.066   0.000   68.6    53   50.8   67.5   9.88  .0741    0.000   201    7    100.0   10 
 9/17/21 10:40a   55.2   55.5   55.2    85   50.8  14.0     N   2.33  20.0     N   49.4   55.1   49.3   51.4  29.904  0.00  0.00   167     2.39    186     1.5  0.11   1.6   0.068   0.000   67.8    54   50.5   66.9  10.04  .0743    0.000   204    7    100.0   10 
 9/17/21 10:50a   55.6   55.6   55.2    85   51.2  14.0     N   2.33  21.0     N   49.9   55.5   49.8   52.7  29.907  0.00  0.00   212     3.04    223     1.7  0.12   1.7   0.065   0.000   67.3    54   50.1   66.3  10.06  .0744    0.000   201    7    100.0   10 
 9/17/21 11:00a   56.6   56.6   55.6    84   51.8  15.0     N   2.50  23.0     N   50.7   56.5   50.6   53.6  29.898  0.00  0.00   225     3.23    229     1.7  0.12   1.7   0.058   0.000   67.0    54   49.8   66.0  10.07  .0744    0.005   203    7    100.0   10 
 9/17/21 11:10a   59.2   59.2   56.7    78   52.3  12.0     N   2.00  19.0     S   54.8   58.9   54.5   58.5  29.890  0.00  0.00   264     3.78    311     2.0  0.14   2.3   0.040   0.000   66.9    53   49.2   65.8   9.91  .0744    0.000   203    7    100.0   10 
 9/17/21 11:20a   58.8   60.0   58.8    77   51.6  15.0     N   2.50  23.0     N   53.2   58.4   52.8   56.6  29.900  0.00  0.00   279     4.00    313     2.2  0.16   2.3   0.043   0.000   66.9    52   48.7   65.7   9.71  .0744    0.000   205    7    100.0   10 
 9/17/21 11:30a   56.3   58.8   56.3    81   50.5  14.0     N   2.33  20.0     N   50.7   56.0   50.4   53.6  29.898  0.00  0.00   242     3.47    248     2.0  0.14   2.0   0.060   0.000   66.7    54   49.5   65.6  10.08  .0744    0.000   202    7    100.0   10 
 9/17/21 11:40a   59.1   59.1   56.3    77   51.9  13.0     N   2.17  22.0     N   54.2   58.7   53.8   57.2  29.895  0.00  0.00   251     3.60    278     2.0  0.14   2.1   0.041   0.000   66.5    51   47.8   65.1   9.52  .0745    0.000   202    7    100.0   10 
 9/17/21 11:50a   61.4   61.4   59.1    69   51.1  13.0     N   2.17  21.0     N   56.9   60.8   56.3   61.1  29.892  0.00  0.00   335     4.80    434     2.4  0.17   2.8   0.025   0.000   66.6    49   46.8   65.0   9.12  .0745    0.000   201    7    100.0   10 
 9/17/21 12:00p   62.6   62.7   61.4    61   49.0  13.0     N   2.17  19.0     N   58.3   61.6   57.3   63.1  29.887  0.00  0.00   409     5.86    487     2.7  0.19   3.0   0.017   0.000   66.8    47   45.9   65.1   8.81  .0745    0.009   204    7    100.0   10 
 9/17/21 12:10p   61.7   62.6   61.2    58   46.8  12.0     N   2.00  19.0     N   57.7   60.4   56.4   61.2  29.883  0.00  0.00   336     4.82    415     2.6  0.19   3.0   0.023   0.000   66.8    47   45.9   65.1   8.81  .0745    0.000   202    7    100.0   10 
 9/17/21 12:20p   60.0   62.3   59.9    62   46.9  14.0     N   2.33  22.0   SSE   54.9   58.9   53.8   57.3  29.887  0.00  0.00   279     4.00    371     2.5  0.18   3.0   0.035   0.000   66.8    47   45.9   65.1   8.81  .0745    0.000   201    7    100.0   10 
 9/17/21 12:30p   58.4   60.3   58.4    68   47.9  15.0     N   2.50  25.0     N   52.7   57.5   51.8   54.6  29.888  0.00  0.00   243     3.48    332     2.2  0.16   2.5   0.046   0.000   66.7    48   46.4   65.0   8.92  .0745    0.000   204    7    100.0   10 
 9/17/21 12:40p   58.2   58.4   57.8    68   47.7  18.0     N   3.00  28.0     N   51.6   57.3   50.7   54.7  29.885  0.00  0.00   342     4.90    378     2.6  0.19   2.8   0.047   0.000   66.5    49   46.7   64.9   9.12  .0745    0.000   204    7    100.0   10 
 9/17/21 12:50p   58.8   59.5   58.3    69   48.6  17.0     N   2.83  28.0     N   52.6   58.0   51.8   55.6  29.879  0.00  0.00   315     4.52    408     2.7  0.19   3.2   0.043   0.000   66.3    49   46.6   64.7   9.12  .0745    0.000   204    7    100.0   10 
 9/17/21  1:00p   58.9   58.9   58.1    69   48.7  19.0     N   3.17  29.0     N   52.2   58.1   51.4   53.4  29.875  0.00  0.00   203     2.91    230     1.9  0.14   2.1   0.042   0.000   66.5    50   47.3   65.0   9.32  .0745    0.010   202    7    100.0   10 
 9/17/21  1:10p   61.0   61.0   58.9    64   48.7  14.0     N   2.33  22.0     N   56.0   60.1   55.1   56.8  29.874  0.00  0.00   174     2.49    190     1.8  0.13   1.9   0.028   0.000   66.8    50   47.6   65.4   9.31  .0744    0.000   203    7    100.0   10 
 9/17/21  1:20p   60.9   61.4   60.7    66   49.5  16.0     N   2.67  25.0   SSW   55.3   60.1   54.5   55.8  29.872  0.00  0.00   157     2.25    199     1.6  0.11   2.0   0.028   0.000   67.1    51   48.4   65.8   9.51  .0744    0.000   201    7    100.0   10 
 9/17/21  1:30p   60.1   60.8   60.1    71   50.7  17.0     N   2.83  26.0   SSE   54.0   59.5   53.4   54.4  29.871  0.00  0.00   140     2.01    174     1.4  0.10   1.6   0.034   0.000   67.3    51   48.5   66.0   9.50  .0743    0.000   202    7    100.0   10 
 9/17/21  1:40p   60.0   60.5   59.9    73   51.3  16.0     N   2.67  25.0     S   54.2   59.5   53.7   54.8  29.870  0.00  0.00   142     2.04    181     1.3  0.09   1.5   0.035   0.000   67.4    51   48.6   66.1   9.50  .0743    0.000   203    7    100.0   10 
 9/17/21  1:50p   61.3   61.3   60.0    77   54.0  15.0     N   2.50  24.0   SSW   56.0   61.2   55.9   58.1  29.870  0.00  0.00   194     2.78    237     1.6  0.11   1.8   0.026   0.000   67.6    51   48.8   66.4   9.50  .0743    0.000   203    7    100.0   10 
 9/17/21  2:00p   61.9   62.0   61.3    78   55.0  10.0     N   1.67  18.0     N   59.2   61.9   59.2   60.8  29.870  0.00  0.00   148     2.12    190     1.3  0.09   1.5   0.022   0.000   67.7    51   48.9   66.5   9.50  .0742    0.007   203    7    100.0   10 
 9/17/21  2:10p   62.3   62.3   61.9    79   55.7   9.0   SSW   1.50  14.0     N   60.4   62.4   60.5   62.1  29.870  0.00  0.00   140     2.01    174     1.2  0.09   1.4   0.019   0.000   67.8    51   49.0   66.6   9.49  .0742    0.000   203    7    100.0   10 
 9/17/21  2:20p   62.6   62.6   62.2    80   56.3  10.0     N   1.67  16.0     N   60.0   62.9   60.3   62.9  29.866  0.00  0.00   185     2.65    251     1.5  0.11   2.0   0.017   0.000   67.9    51   49.1   66.7   9.49  .0742    0.000   202    7    100.0   10 
 9/17/21  2:30p   61.5   62.8   61.5    80   55.3  13.0     N   2.17  25.0     N   57.0   61.6   57.1   60.9  29.864  0.00  0.00   269     3.86    334     2.0  0.14   2.4   0.024   0.000   68.0    51   49.2   66.8   9.49  .0742    0.000   201    7    100.0   10 
 9/17/21  2:40p   61.7   61.8   61.5    82   56.1  17.0     N   2.83  29.0     N   55.9   61.9   56.1   58.9  29.863  0.00  0.00   229     3.28    250     1.5  0.11   1.6   0.023   0.000   68.1    51   49.3   66.9   9.49  .0742    0.000   202    7    100.0   10 
 9/17/21  2:50p   61.3   61.6   61.0    83   56.1  18.0     N   3.00  29.0     N   55.1   61.5   55.3   57.8  29.861  0.00  0.00   211     3.02    264     1.5  0.11   1.8   0.026   0.000   68.2    52   49.9   67.1   9.69  .0741    0.000   201    7    100.0   10 
 9/17/21  3:00p   62.0   62.2   61.3    82   56.4  16.0     N   2.67  26.0     N   56.5   62.2   56.7   59.1  29.862  0.00  0.00   195     2.80    229     1.3  0.09   1.6   0.021   0.000   68.3    52   50.0   67.2   9.68  .0741    0.006   204    7    100.0   10 
 9/17/21  3:10p   60.6   61.9   60.6    83   55.4  17.0     N   2.83  26.0     N   54.6   60.7   54.7   55.5  29.862  0.00  0.00   117     1.68    163     0.9  0.06   1.1   0.031   0.000   68.4    52   50.1   67.2   9.68  .0741    0.000   205    7    100.0   10 
 9/17/21  3:20p   61.8   61.8   60.6    85   57.2  16.0     N   2.67  23.0     N   56.3   62.1   56.6   57.0  29.862  0.00  0.00    91     1.30     98     0.7  0.05   0.8   0.022   0.000   68.4    52   50.1   67.2   9.68  .0741    0.000   202    7    100.0   10 
 9/17/21  3:30p   62.6   62.6   61.8    86   58.4  12.0     N   2.00  19.0     N   58.7   63.1   59.2   59.9  29.863  0.00  0.00    98     1.40    105     0.7  0.05   0.7   0.017   0.000   68.4    52   50.1   67.2   9.68  .0741    0.000   200    7    100.0   10 
 9/17/21  3:40p   63.6   63.6   62.6    87   59.7  10.0     N   1.67  19.0     N   61.2   64.2   61.8   63.0  29.856  0.00  0.00   114     1.63    128     0.8  0.06   0.8   0.010   0.000   68.4    52   50.1   67.2   9.68  .0741    0.000   203    7    100.0   10 
 9/17/21  3:50p   61.0   64.4   61.0    81   55.1  14.0     N   2.33  22.0     N   56.0   61.0   56.0   56.8  29.858  0.00  0.00   106     1.52    125     0.7  0.05   0.8   0.028   0.000   68.5    52   50.2   67.3   9.68  .0741    0.000   203    7    100.0   10 
 9/17/21  4:00p   59.1   60.8   58.7    87   55.2  15.0     N   2.50  22.0     N   53.5   59.2   53.6   53.5  29.855  0.00  0.00    60     0.86     72     0.1  0.01   0.5   0.041   0.000   68.5    53   50.7   67.4   9.88  .0740    0.004   203    7    100.0   10 
 9/17/21  4:10p   60.4   61.1   59.2    88   56.8  16.0     N   2.67  25.0     N   54.7   60.7   55.0   55.2  29.855  0.00  0.00    73     1.05     88     0.3  0.02   0.5   0.032   0.000   68.6    53   50.8   67.5   9.88  .0740    0.000   201    7    100.0   10 
 9/17/21  4:20p   61.8   61.8   60.3    88   58.2  15.0     N   2.50  25.0     N   56.6   62.2   57.0   57.4  29.852  0.00  0.00    74     1.06     90     0.3  0.02   0.5   0.022   0.000   68.6    53   50.8   67.5   9.88  .0740    0.000   204    7    100.0   10 
 9/17/21  4:30p   61.4   62.0   61.4    87   57.5  14.0     N   2.33  22.0     N   56.5   61.7   56.8   56.5  29.851  0.00  0.00    45     0.65     58     0.0  0.00   0.0   0.025   0.000   68.7    53   50.9   67.6   9.88  .0740    0.000   202    7    100.0   10 
 9/17/21  4:40p   62.0   62.2   61.4    90   59.0  15.0     N   2.50  23.0     N   56.8   62.5   57.3   57.1  29.848  0.01  0.00    45     0.65     63     0.0  0.00   0.0   0.021   0.000   68.7    53   50.9   67.6   9.88  .0740    0.000   201    7    100.0   10 
 9/17/21  4:50p   62.5   62.6   61.9    92   60.1  13.0     N   2.17  25.0    SE   58.2   63.2   58.9   58.9  29.842  0.00  0.00    53     0.76     74     0.0  0.00   0.0   0.017   0.000   68.7    53   50.9   67.6   9.88  .0740    0.000   204    7    100.0   10 
 9/17/21  5:00p   62.4   62.5   62.3    93   60.3  15.0     N   2.50  28.0     N   57.3   63.1   58.0   57.9  29.839  0.00  0.00    48     0.69     60     0.0  0.00   0.0   0.018   0.000   68.8    53   51.0   67.7   9.87  .0739    0.002   203    7    100.0   10 
 9/17/21  5:10p   62.9   63.0   62.5    93   60.8  18.0     N   3.00  30.0     N   57.0   63.6   57.7   57.3  29.836  0.00  0.00    32     0.46     46     0.0  0.00   0.0   0.015   0.000   69.0    54   51.7   67.9   9.99  .0739    0.000   201    7    100.0   10 
 9/17/21  5:20p   62.7   63.0   62.7    93   60.6  18.0     N   3.00  34.0     N   56.7   63.4   57.4   56.9  29.830  0.00  0.00    25     0.36     30     0.0  0.00   0.0   0.016   0.000   69.1    54   51.8   68.0   9.99  .0739    0.000   203    7    100.0   10 
 9/17/21  5:30p   62.3   62.8   62.3    93   60.2  17.0     N   2.83  27.0     N   56.5   63.0   57.2   56.6  29.830  0.00  0.00    21     0.30     26     0.0  0.00   0.0   0.019   0.000   69.1    54   51.8   68.0   9.99  .0739    0.000   202    7    100.0   10 
 9/17/21  5:40p   62.0   62.3   62.0    92   59.6  13.0     N   2.17  25.0     N   57.6   62.6   58.2   57.3  29.829  0.00  0.00    16     0.23     19     0.0  0.00   0.0   0.021   0.000   69.0    54   51.7   67.9   9.99  .0739    0.000   204    7    100.0   10 
 9/17/21  5:50p   61.7   61.9   61.7    93   59.7  14.0     N   2.33  29.0     N   56.8   62.3   57.4   56.5  29.826  0.00  0.00    14     0.20     14     0.0  0.00   0.0   0.023   0.000   69.0    54   51.7   67.9   9.99  .0739    0.000   203    7    100.0   10 
 9/17/21  6:00p   61.9   62.1   61.7    93   59.9  13.0     N   2.17  27.0     N   57.5   62.5   58.1   57.1  29.820  0.00  0.00    13     0.19     14     0.0  0.00   0.0   0.022   0.000   69.0    54   51.7   67.9   9.99  .0738    0.001   202    7    100.0   10 
 9/17/21  6:10p   61.7   62.1   61.7    94   60.0  15.0     N   2.50  25.0    SW   56.5   62.3   57.1   56.2  29.814  0.00  0.00    12     0.17     12     0.0  0.00   0.0   0.023   0.000   69.0    54   51.7   67.9   9.99  .0738    0.000   202    7    100.0   10 
 9/17/21  6:20p   61.9   62.0   61.6    94   60.2  15.0     N   2.50  26.0     N   56.7   62.5   57.3   56.4  29.812  0.00  0.00    12     0.17     14     0.0  0.00   0.0   0.022   0.000   69.0    54   51.7   67.9   9.99  .0738    0.000   204    7    100.0   10 
 9/17/21  6:30p   61.9   61.9   61.7    94   60.2  18.0     N   3.00  30.0     N   55.8   62.5   56.4   55.5  29.812  0.00  0.00     9     0.13     11     0.0  0.00   0.0   0.022   0.000   69.1    54   51.8   68.0   9.99  .0738    0.000   203    7    100.0   10 
 9/17/21  6:40p   61.6   62.0   61.6    95   60.2  21.0     N   3.50  36.0     N   54.8   62.2   55.4   54.5  29.809  0.00  0.00     7     0.10      7     0.0  0.00   0.0   0.024   0.000   69.1    54   51.8   68.0   9.99  .0738    0.000   202    7    100.0   10 
 9/17/21  6:50p   61.6   62.0   61.6    95   60.2  21.0     N   3.50  34.0     N   54.8   62.2   55.4   54.5  29.806  0.00  0.00     6     0.09      7     0.0  0.00   0.0   0.024   0.000   69.1    55   52.2   68.1  10.17  .0738    0.000   200    7    100.0   10 
 9/17/21  7:00p   61.9   61.9   61.5    96   60.7  21.0     N   3.50  41.0     N   55.2   62.6   55.9   54.6  29.803  0.00  0.00     2     0.03      5     0.0  0.00   0.0   0.022   0.000   69.2    55   52.3   68.1  10.17  .0738    0.001   205    7    100.0   10 
 9/17/21  7:10p   61.5   62.0   61.5    95   60.1  23.0     N   3.83  40.0     S   54.3   62.1   54.9   53.7  29.797  0.00  0.00     0     0.00      0     0.0  0.00   0.0   0.024   0.000   69.3    55   52.4   68.2  10.16  .0737    0.000   202    7    100.0   10 
 9/17/21  7:20p   61.7   62.0   61.5    95   60.3  23.0     N   3.83  40.0     N   54.5   62.3   55.1   53.9  29.783  0.00  0.00     0     0.00      0     0.0  0.00   0.0   0.023   0.000   69.3    55   52.4   68.2  10.16  .0737    0.000   202    7    100.0   10 
 9/17/21  7:30p   62.0   62.1   61.8    96   60.8  25.0     N   4.17  39.0     N   54.5   62.7   55.2   54.1  29.788  0.00  0.00     0     0.00      0     0.0  0.00   0.0   0.021   0.000   69.4    55   52.5   68.3  10.16  .0737    0.000   204    7    100.0   10 
 9/17/21  7:40p   62.4   62.4   61.8    96   61.2  24.0     N   4.00  40.0     N   55.1   63.2   55.9   54.4  29.779  0.00  0.00     0     0.00      0     0.0  0.00   0.0   0.018   0.000   69.4    55   52.5   68.3  10.16  .0737    0.000   203    7    100.0   10 
 9/17/21  7:50p   62.9   62.9   62.3    96   61.7  23.0     N   3.83  40.0    SW   55.9   63.7   56.7   55.2  29.777  0.00  0.00     0     0.00      0     0.0  0.00   0.0   0.015   0.000   69.5    55   52.6   68.3  10.16  .0736    0.000   203    7    100.0   10 
 9/17/21  8:00p   62.6   63.1   62.6    95   61.1  22.0     N   3.67  38.0     N   55.8   63.4   56.6   55.1  29.775  0.00  0.00     0     0.00      0     0.0  0.00   0.0   0.017   0.000   69.6    55   52.7   68.4  10.16  .0736    0.001   204    7    100.0   10 
 9/17/21  8:10p   62.4   62.7   62.3    96   61.2  21.0     N   3.50  33.0   SSW   55.7   63.2   56.5   54.9  29.771  0.00  0.00     0     0.00      0     0.0  0.00   0.0   0.018   0.000   69.6    55   52.7   68.4  10.16  .0736    0.000   205    7    100.0   10 
 9/17/21  8:20p   62.3   62.7   62.3    96   61.1  22.0     N   3.67  36.0    SW   55.4   63.1   56.2   54.7  29.773  0.00  0.00     0     0.00      0     0.0  0.00   0.0   0.019   0.000   69.7    55   52.8   68.5  10.16  .0736    0.000   202    7    100.0   10 
 9/17/21  8:30p   62.9   63.0   62.4    96   61.7  22.0     N   3.67  43.0     N   56.1   63.7   56.9   55.4  29.771  0.00  0.00     0     0.00      0     0.0  0.00   0.0   0.015   0.000   69.8    55   52.9   68.6  10.15  .0736    0.000   203    7    100.0   10 
 9/17/21  8:40p   63.1   63.1   62.9    96   61.9  22.0     N   3.67  44.0     N   56.3   64.0   57.2   55.7  29.764  0.00  0.00     0     0.00      0     0.0  0.00   0.0   0.013   0.000   69.8    55   52.9   68.6  10.15  .0735    0.000   203    7    100.0   10 
 9/17/21  8:50p   63.0   63.1   62.9    96   61.8  24.0     N   4.00  40.0     N   55.8   63.8   56.6   55.1  29.766  0.00  0.00     0     0.00      0     0.0  0.00   0.0   0.014   0.000   69.9    55   53.0   68.6  10.15  .0735    0.000   204    7    100.0   10 
 9/17/21  9:00p   63.0   63.0   62.9    96   61.8  27.0     N   4.50  45.0     N   55.4   63.8   56.2   54.8  29.760  0.00  0.00     0     0.00      0     0.0  0.00   0.0   0.014   0.000   69.9    55   53.0   68.6  10.15  .0735    0.001   204    7    100.0   10 
 9/17/21  9:10p   63.0   63.0   62.8    96   61.8  24.0     N   4.00  44.0     N   55.8   63.8   56.6   55.1  29.755  0.00  0.00     0     0.00      0     0.0  0.00   0.0   0.014   0.000   70.0    55   53.1   68.7  10.15  .0735    0.000   204    7    100.0   10 
 9/17/21  9:20p   62.8   63.0   62.6    96   61.6  25.0     N   4.17  38.0     N   55.5   63.6   56.3   54.9  29.757  0.01  0.00     0     0.00      0     0.0  0.00   0.0   0.015   0.000   70.0    56   53.6   68.8  10.35  .0735    0.000   200    7    100.0   10 
 9/17/21  9:30p   62.0   62.8   62.0    96   60.8  24.0     N   4.00  44.0     N   54.7   62.7   55.4   53.9  29.760  0.00  0.00     0     0.00      0     0.0  0.00   0.0   0.021   0.000   70.0    56   53.6   68.8  10.35  .0735    0.000   204    7    100.0   10 
 9/17/21  9:40p   60.8   62.0   60.8    96   59.7  25.0     N   4.17  38.0     N   53.2   61.3   53.7   52.2  29.760  0.00  0.00     0     0.00      0     0.0  0.00   0.0   0.029   0.000   70.0    56   53.6   68.8  10.35  .0735    0.000   202    7    100.0   10 
 9/17/21  9:50p   62.0   62.0   60.7    97   61.1  21.0     N   3.50  34.0     N   55.3   62.7   56.0   54.4  29.750  0.01  0.00     0     0.00      0     0.0  0.00   0.0   0.021   0.000   70.0    56   53.6   68.8  10.35  .0735    0.000   203    7    100.0   10 
Email: AdamSPAM@StormwatchersRetreat.com (To send me email remove the word 'SPAM' from my email address.)